This is the latest recevied weather packets stored in our database for station/object WX9WTF. If no packets are shown the sender has not sent any weather packets the latest 10 day(s).
| Time | Temp. | Humidity | Pressure | Rain* | Wind** | Luminosity | Snow |
|---|---|---|---|---|---|---|---|
| 1777670379 | 17.78° C | 39% | 1017.3 hPa | 0 mm | - | 247 W/m² | - |
| 1777670076 | 18.33° C | 38% | 1017.4 hPa | 0 mm | - | 547 W/m² | - |
| 1777669773 | 17.22° C | 42% | 1017.5 hPa | 0 mm | - | 366 W/m² | - |
| 1777669470 | 17.78° C | 38% | 1017.7 hPa | 0 mm | - | 226 W/m² | - |
| 1777669167 | 17.22° C | 41% | 1017.7 hPa | 0 mm | - | 292 W/m² | - |
| 1777668864 | 18.33° C | 37% | 1017.8 hPa | 0 mm | - | 267 W/m² | - |
| 1777668561 | 17.78° C | 36% | 1018.1 hPa | 0 mm | - | 671 W/m² | - |
| 1777668257 | 17.78° C | 35% | 1017.8 hPa | 0 mm | - | 630 W/m² | - |
| 1777667650 | 17.78° C | 36% | 1018.3 hPa | 0 mm | - | 362 W/m² | - |
| 1777667348 | 17.22° C | 37% | 1018.2 hPa | 0 mm | - | 354 W/m² | - |
| 1777667044 | 17.22° C | 39% | 1018.3 hPa | 0 mm | - | 402 W/m² | - |
| 1777666741 | 17.22° C | 35% | 1018.4 hPa | 0 mm | - | 258 W/m² | - |
| 1777666438 | 17.22° C | 41% | 1018.5 hPa | 0 mm | - | 317 W/m² | - |
| 1777666135 | 17.78° C | 37% | 1018.5 hPa | 0 mm | - | 276 W/m² | - |
| 1777665831 | 17.22° C | 44% | 1018.5 hPa | 0 mm | - | 463 W/m² | - |
| 1777665530 | 16.67° C | 39% | 1018.8 hPa | 0 mm | - | 345 W/m² | - |
| 1777665225 | 17.78° C | 37% | 1018.9 hPa | 0 mm | - | 249 W/m² | - |
| 1777664921 | 18.33° C | 41% | 1018.8 hPa | 0 mm | - | 897 W/m² | - |
| 1777664617 | 17.22° C | 47% | 1018.9 hPa | 0 mm | - | 1004 W/m² | - |
| 1777664314 | 16.67° C | 37% | 1019.1 hPa | 0 mm | - | 307 W/m² | - |
| 1777664013 | 17.22° C | 39% | 1019.2 hPa | 0 mm | - | 372 W/m² | - |
| 1777663710 | 17.22° C | 37% | 1019.1 hPa | 0 mm | - | 304 W/m² | - |
| 1777663407 | 17.78° C | 41% | 1019.1 hPa | 0 mm | - | 358 W/m² | - |
| 1777663103 | 17.22° C | 37% | 1019.2 hPa | 0 mm | - | 397 W/m² | - |
| 1777662801 | 17.22° C | 40% | 1019.1 hPa | 0 mm | - | 1025 W/m² | - |
* Rain latest hour (hover to see other rain measurements)
** Current wind speed in m/s (hover to see current wind gust speed)